PILOTS ONLINE: 341    ATC ONLINE: 87

KHYA

Barnstable Municipal Boardman Polando Field

Location

IATA HYA
City Hyannis
Country  United States
Latitude 41° 40' 9" N
Longitude 70° 16' 49" W
Elevation 54 ft
Type Medium Airport

Map

Weather

METAR
2014/09/02 00:56
KHYA 020056Z AUTO 22008KT 10SM CLR 23/21 A2995 RMK AO2 SLP143 T02330211
TAF
2014/09/01 22:36
TAF 
      AMD KHYA 012130Z 0122/0218 22011KT P6SM SKC 
     FM020400 23006KT P6SM SCT001 
     FM020700 23006KT P6SM BKN001 
     FM021700 21008KT P6SM SCT001

Runways

06/24 5425 ft / 150 ft
15/33 5252 ft / 150 ft

Outbound flights

Callsign Flying to Pilot ATD/STD ETA Aircraft

Inbound flights

Callsign Flying from Pilot ATD ETA Aircraft